createdAt,value
2024-02-13T00:02:03.983Z,6.02
2024-02-13T00:05:10.965Z,5.94
2024-02-13T00:08:14.015Z,5.93
2024-02-13T00:11:17.185Z,5.94
2024-02-13T00:14:21.053Z,5.85
2024-02-13T00:17:29.215Z,5.82
2024-02-13T00:20:32.133Z,5.78
2024-02-13T00:23:37.883Z,5.73
2024-02-13T00:26:40.766Z,5.68
2024-02-13T00:29:46.007Z,5.67
2024-02-13T00:32:48.796Z,5.58
2024-02-13T00:35:55.329Z,5.52
2024-02-13T00:38:58.347Z,5.49
2024-02-13T00:42:03.988Z,5.42
2024-02-13T00:45:12.256Z,5.46
2024-02-13T00:48:15.503Z,5.44
2024-02-13T00:51:18.329Z,5.38
2024-02-13T00:54:21.140Z,5.31
2024-02-13T00:57:23.951Z,5.19
2024-02-13T01:00:26.695Z,5.06
2024-02-13T01:03:30.900Z,5.02
2024-02-13T01:06:35.124Z,5.11
2024-02-13T01:09:38.187Z,5.52
2024-02-13T01:12:40.915Z,5.74
2024-02-13T01:15:43.630Z,5.98
2024-02-13T01:18:46.720Z,6.09
2024-02-13T01:21:49.993Z,6.07
2024-02-13T01:24:53.006Z,6.23
2024-02-13T01:27:56.792Z,6.33
2024-02-13T01:30:59.781Z,6.35
2024-02-13T01:34:02.792Z,6.42
2024-02-13T01:37:05.598Z,6.42
2024-02-13T01:40:09.078Z,6.44
2024-02-13T01:43:11.779Z,6.44
2024-02-13T01:46:14.449Z,6.53
2024-02-13T01:49:17.214Z,6.52
2024-02-13T01:52:20.273Z,6.59
2024-02-13T01:55:26.467Z,6.61
2024-02-13T01:58:32.388Z,6.57
2024-02-13T02:01:37.198Z,6.61
2024-02-13T02:04:40.509Z,6.56
2024-02-13T02:07:43.625Z,6.52
2024-02-13T02:10:46.427Z,6.48
2024-02-13T02:13:49.408Z,6.39
2024-02-13T02:16:52.185Z,6.30
2024-02-13T02:19:54.973Z,6.19
2024-02-13T02:22:58.882Z,6.09
2024-02-13T02:26:03.782Z,5.97
2024-02-13T02:29:07.045Z,6.03
2024-02-13T02:32:10.393Z,6.15
2024-02-13T02:35:13.296Z,6.22
2024-02-13T02:38:16.713Z,6.22
2024-02-13T02:41:19.440Z,6.43
2024-02-13T02:44:23.098Z,6.43
2024-02-13T02:47:26.395Z,6.51
2024-02-13T02:50:29.346Z,6.44
2024-02-13T02:53:32.517Z,6.55
2024-02-13T02:56:38.013Z,6.54
2024-02-13T02:59:40.892Z,6.67
2024-02-13T03:02:43.620Z,6.74
2024-02-13T03:05:46.419Z,6.72
2024-02-13T03:08:50.584Z,6.72
2024-02-13T03:11:53.614Z,6.74
2024-02-13T03:14:57.449Z,6.69
2024-02-13T03:18:00.364Z,6.76
2024-02-13T03:21:05.927Z,6.76
2024-02-13T03:24:08.657Z,6.75
2024-02-13T03:27:11.469Z,6.76
2024-02-13T03:30:15.631Z,6.73
2024-02-13T03:33:18.550Z,6.76
2024-02-13T03:36:21.425Z,6.79
2024-02-13T03:39:24.818Z,6.77
2024-02-13T03:42:27.525Z,6.78
2024-02-13T03:45:30.200Z,6.72
2024-02-13T03:48:32.955Z,6.65
2024-02-13T03:51:39.374Z,6.61
2024-02-13T03:54:42.128Z,6.63
2024-02-13T03:57:44.917Z,6.58
2024-02-13T04:00:47.724Z,6.56
2024-02-13T04:03:50.418Z,6.56
2024-02-13T04:06:53.943Z,6.47
2024-02-13T04:09:56.685Z,6.50
2024-02-13T04:12:59.439Z,6.51
2024-02-13T04:16:02.254Z,6.50
2024-02-13T04:19:05.080Z,6.42
2024-02-13T04:22:07.877Z,6.41
2024-02-13T04:25:11.245Z,6.41
2024-02-13T04:28:14.372Z,6.34
2024-02-13T04:31:17.043Z,6.33
2024-02-13T04:34:19.767Z,6.33
2024-02-13T04:37:23.905Z,6.25
2024-02-13T04:40:26.776Z,6.21
2024-02-13T04:43:30.291Z,6.15
2024-02-13T04:46:32.974Z,6.29
2024-02-13T04:49:35.728Z,6.23
2024-02-13T04:52:38.443Z,6.11
2024-02-13T04:55:41.318Z,6.11
2024-02-13T04:58:45.325Z,6.13
2024-02-13T05:01:48.673Z,6.12
2024-02-13T05:05:10.478Z,6.27
2024-02-13T05:08:13.249Z,6.32
2024-02-13T05:11:16.268Z,6.27
2024-02-13T05:14:19.000Z,6.25
2024-02-13T05:17:25.226Z,6.20
2024-02-13T05:20:27.928Z,6.18
2024-02-13T05:23:30.688Z,6.13
2024-02-13T05:26:34.860Z,6.13
2024-02-13T05:29:41.340Z,6.07
2024-02-13T05:32:44.100Z,6.00
2024-02-13T05:35:47.868Z,5.86
2024-02-13T05:38:51.676Z,5.75
2024-02-13T05:41:56.180Z,5.73
2024-02-13T05:44:58.925Z,5.74
2024-02-13T05:48:02.887Z,5.69
2024-02-13T05:51:12.071Z,5.58
2024-02-13T05:54:16.193Z,5.59
2024-02-13T05:57:20.947Z,5.65
2024-02-13T06:00:25.916Z,5.94
2024-02-13T06:03:28.769Z,6.01
2024-02-13T06:06:31.652Z,6.12
2024-02-13T06:09:34.423Z,6.34
2024-02-13T06:12:37.276Z,6.52
2024-02-13T06:15:40.157Z,6.53
2024-02-13T06:18:42.943Z,6.63
2024-02-13T06:21:45.683Z,6.74
2024-02-13T06:24:48.513Z,6.85
2024-02-13T06:27:51.653Z,6.95
2024-02-13T06:30:54.645Z,7.03
2024-02-13T06:33:57.518Z,7.09
2024-02-13T06:37:02.119Z,7.10
2024-02-13T06:40:05.380Z,7.14
2024-02-13T06:43:08.110Z,7.17
2024-02-13T06:46:11.018Z,7.27
2024-02-13T06:49:13.951Z,7.27
2024-02-13T06:52:18.081Z,7.29
2024-02-13T06:55:23.131Z,7.38
2024-02-13T06:58:29.172Z,7.34
2024-02-13T07:01:31.921Z,7.36
2024-02-13T07:04:34.782Z,7.34
2024-02-13T07:07:46.567Z,7.35
2024-02-13T07:10:51.235Z,7.37
2024-02-13T07:13:54.062Z,7.39
2024-02-13T07:16:57.011Z,7.51
2024-02-13T07:20:01.885Z,7.60
2024-02-13T07:23:05.151Z,7.60
2024-02-13T07:26:12.548Z,7.63
2024-02-13T07:29:16.965Z,7.68
2024-02-13T07:32:22.082Z,7.71
2024-02-13T07:35:24.935Z,7.76
2024-02-13T07:38:31.217Z,7.78
2024-02-13T07:41:36.609Z,7.86
2024-02-13T07:44:39.406Z,7.96
2024-02-13T07:47:44.398Z,7.97
2024-02-13T07:50:47.538Z,7.96
2024-02-13T07:53:50.349Z,7.99
2024-02-13T07:56:56.421Z,8.10
2024-02-13T07:59:59.935Z,8.30
2024-02-13T08:03:03.229Z,8.39
2024-02-13T08:06:09.445Z,8.55
2024-02-13T08:09:15.331Z,8.59
2024-02-13T08:12:18.940Z,8.73
2024-02-13T08:15:21.677Z,8.67
2024-02-13T08:18:26.415Z,8.63
2024-02-13T08:21:29.636Z,8.67
2024-02-13T08:24:32.941Z,8.90
2024-02-13T08:27:38.680Z,8.79
2024-02-13T08:30:41.445Z,8.92
2024-02-13T08:33:48.595Z,8.81
2024-02-13T08:36:55.692Z,8.88
2024-02-13T08:39:58.825Z,8.90
2024-02-13T08:43:01.594Z,8.93
2024-02-13T08:46:04.485Z,9.13
2024-02-13T08:49:07.692Z,9.51
2024-02-13T08:52:11.781Z,9.67
2024-02-13T08:55:17.553Z,10.18
2024-02-13T08:58:20.938Z,10.51
2024-02-13T09:01:23.821Z,11.33
2024-02-13T09:04:26.863Z,11.94
2024-02-13T09:07:29.926Z,12.17
2024-02-13T09:10:32.787Z,12.44
2024-02-13T09:13:35.547Z,12.75
2024-02-13T09:16:38.282Z,13.57
2024-02-13T09:19:44.370Z,14.65
2024-02-13T09:22:52.089Z,16.34
2024-02-13T09:25:56.984Z,17.27
2024-02-13T09:29:02.581Z,17.24
2024-02-13T09:32:06.068Z,17.50
2024-02-13T09:35:10.341Z,19.03
2024-02-13T09:38:13.687Z,18.46
2024-02-13T09:41:16.679Z,19.09
2024-02-13T09:44:20.354Z,19.26
2024-02-13T09:47:23.487Z,19.57
2024-02-13T09:50:49.115Z,19.42
2024-02-13T09:53:55.220Z,20.96
2024-02-13T09:57:01.299Z,20.70
2024-02-13T10:00:04.945Z,20.16
2024-02-13T10:03:10.615Z,20.71
2024-02-13T10:06:14.156Z,20.26
2024-02-13T10:09:18.452Z,21.14
2024-02-13T10:12:21.265Z,21.95
2024-02-13T10:15:45.717Z,21.95
2024-02-13T10:18:54.831Z,22.20
2024-02-13T10:22:15.309Z,21.40
2024-02-13T10:25:25.960Z,22.10
2024-02-13T10:28:55.955Z,22.32
2024-02-13T10:32:08.487Z,21.12
2024-02-13T10:35:12.911Z,19.49
2024-02-13T10:38:24.829Z,18.72
2024-02-13T10:41:30.085Z,17.13
2024-02-13T10:44:40.150Z,16.99
2024-02-13T10:47:55.892Z,15.53
2024-02-13T10:51:01.908Z,15.06
2024-02-13T10:54:10.683Z,14.29
2024-02-13T10:57:17.937Z,13.98
2024-02-13T11:00:21.834Z,13.96
2024-02-13T11:03:25.779Z,13.67
2024-02-13T11:06:28.980Z,13.53
2024-02-13T11:09:31.881Z,13.51
2024-02-13T11:12:36.452Z,13.17
2024-02-13T11:15:40.994Z,13.29
2024-02-13T11:18:51.456Z,13.83
2024-02-13T11:21:54.701Z,13.83
2024-02-13T11:25:07.506Z,14.50
2024-02-13T11:28:12.264Z,14.03
2024-02-13T11:31:16.424Z,14.42
2024-02-13T11:34:20.866Z,14.96
2024-02-13T11:37:31.912Z,15.71
2024-02-13T11:40:41.248Z,16.70
2024-02-13T11:43:43.933Z,17.94
2024-02-13T11:46:56.323Z,19.07
2024-02-13T11:49:59.217Z,19.34
2024-02-13T11:53:05.878Z,20.29
2024-02-13T11:56:09.671Z,20.81
2024-02-13T11:59:12.565Z,20.61
2024-02-13T12:02:15.943Z,20.55
2024-02-13T12:05:26.005Z,20.29
2024-02-13T12:08:31.654Z,18.30
2024-02-13T12:11:37.209Z,19.96
2024-02-13T12:14:50.507Z,20.33
2024-02-13T12:18:00.828Z,20.02
2024-02-13T12:21:03.955Z,20.55
2024-02-13T12:24:08.523Z,20.51
2024-02-13T12:27:12.075Z,18.90
2024-02-13T12:30:15.812Z,19.84
2024-02-13T12:33:24.608Z,20.17
2024-02-13T12:36:31.624Z,19.33
2024-02-13T12:39:38.016Z,20.13
2024-02-13T12:42:41.757Z,21.81
2024-02-13T12:45:44.822Z,19.84
2024-02-13T12:48:49.587Z,17.73
2024-02-13T12:51:52.607Z,16.26
2024-02-13T12:54:55.409Z,16.05
2024-02-13T12:57:58.480Z,15.75
2024-02-13T13:01:11.303Z,15.38
2024-02-13T13:04:17.723Z,14.84
2024-02-13T13:07:21.178Z,14.61
2024-02-13T13:10:27.722Z,14.50
2024-02-13T13:13:45.981Z,14.66
2024-02-13T13:16:48.965Z,15.02
2024-02-13T13:19:51.973Z,14.83
2024-02-13T13:22:55.041Z,16.52
2024-02-13T13:25:57.695Z,15.81
2024-02-13T13:29:07.136Z,16.91
2024-02-13T13:32:11.092Z,17.12
2024-02-13T13:35:21.579Z,15.55
2024-02-13T13:38:26.695Z,14.21
2024-02-13T13:41:31.804Z,15.55
2024-02-13T13:44:35.502Z,16.54
2024-02-13T13:47:38.452Z,14.19
2024-02-13T13:50:41.503Z,13.31
2024-02-13T13:53:45.362Z,14.11
2024-02-13T13:56:48.299Z,15.32
2024-02-13T13:59:51.151Z,16.04
2024-02-13T14:02:54.078Z,15.50
2024-02-13T14:05:57.890Z,14.94
2024-02-13T14:09:00.854Z,14.95
2024-02-13T14:12:07.052Z,15.88
2024-02-13T14:15:13.273Z,15.38
2024-02-13T14:18:16.137Z,15.52
2024-02-13T14:21:20.153Z,15.26
2024-02-13T14:24:22.970Z,15.92
2024-02-13T14:27:25.771Z,15.01
2024-02-13T14:30:30.428Z,14.21
2024-02-13T14:33:39.219Z,12.79
2024-02-13T14:36:46.443Z,12.10
2024-02-13T14:39:51.760Z,11.90
2024-02-13T14:42:54.539Z,11.74
2024-02-13T14:46:00.272Z,11.71
2024-02-13T14:49:04.013Z,11.57
2024-02-13T14:52:07.687Z,11.50
2024-02-13T14:55:13.385Z,11.34
2024-02-13T14:58:25.843Z,11.27
2024-02-13T15:01:34.107Z,11.07
2024-02-13T15:04:37.682Z,10.98
2024-02-13T15:07:41.566Z,10.96
2024-02-13T15:10:47.195Z,10.83
2024-02-13T15:13:51.076Z,10.77
2024-02-13T15:16:55.593Z,10.72
2024-02-13T15:20:00.833Z,10.59
2024-02-13T15:23:05.315Z,10.51
2024-02-13T15:26:08.619Z,10.52
2024-02-13T15:29:12.977Z,10.42
2024-02-13T15:32:17.347Z,10.36
2024-02-13T15:35:25.908Z,10.15
2024-02-13T15:38:48.182Z,9.99
2024-02-13T15:42:09.399Z,9.82
2024-02-13T15:45:33.376Z,9.73
2024-02-13T15:48:43.888Z,9.61
2024-02-13T15:51:46.908Z,9.49
2024-02-13T15:54:50.443Z,9.40
2024-02-13T15:57:53.075Z,9.28
2024-02-13T16:00:56.260Z,9.18
2024-02-13T16:04:03.034Z,9.01
2024-02-13T16:07:10.176Z,8.89
2024-02-13T16:10:18.001Z,8.78
2024-02-13T16:13:25.634Z,8.66
2024-02-13T16:16:29.023Z,8.56
2024-02-13T16:19:32.255Z,8.44
2024-02-13T16:22:37.029Z,8.36
2024-02-13T16:25:40.034Z,8.26
2024-02-13T16:28:42.887Z,8.17
2024-02-13T16:31:45.770Z,8.03
2024-02-13T16:34:51.558Z,7.98
2024-02-13T16:37:54.636Z,7.94
2024-02-13T16:40:57.400Z,7.76
2024-02-13T16:44:00.695Z,7.74
2024-02-13T16:47:08.020Z,7.63
2024-02-13T16:50:16.128Z,7.50
2024-02-13T16:53:20.060Z,7.47
2024-02-13T16:56:43.757Z,7.48
2024-02-13T16:59:46.864Z,7.35
2024-02-13T17:02:50.620Z,7.26
2024-02-13T17:05:54.219Z,7.26
2024-02-13T17:08:57.179Z,7.18
2024-02-13T17:12:01.874Z,7.15
2024-02-13T17:15:14.463Z,7.15
2024-02-13T17:18:17.617Z,7.07
2024-02-13T17:21:20.454Z,7.13
2024-02-13T17:24:23.529Z,7.06
2024-02-13T17:27:26.911Z,7.04
2024-02-13T17:30:31.019Z,7.04
2024-02-13T17:33:37.211Z,6.99
2024-02-13T17:36:40.079Z,6.86
2024-02-13T17:39:42.819Z,6.85
2024-02-13T17:42:45.692Z,6.81
2024-02-13T17:45:48.699Z,6.74
2024-02-13T17:48:52.259Z,6.69
2024-02-13T17:51:55.146Z,6.64
2024-02-13T17:54:57.909Z,6.62
2024-02-13T17:58:00.596Z,6.59
2024-02-13T18:01:03.529Z,6.50
2024-02-13T18:04:06.987Z,6.42
2024-02-13T18:07:12.583Z,6.46
2024-02-13T18:10:19.401Z,6.39
2024-02-13T18:13:23.516Z,6.36
2024-02-13T18:16:26.317Z,6.32
2024-02-13T18:19:29.442Z,6.29
2024-02-13T18:22:32.375Z,6.23
2024-02-13T18:25:36.034Z,6.20
2024-02-13T18:28:39.051Z,6.16
2024-02-13T18:31:48.276Z,6.09
2024-02-13T18:34:53.714Z,6.05
2024-02-13T18:37:56.438Z,5.98
2024-02-13T18:40:59.415Z,5.97
2024-02-13T18:44:02.067Z,5.87
2024-02-13T18:47:10.953Z,5.93
2024-02-13T18:50:14.205Z,5.87
2024-02-13T18:53:17.651Z,5.85
2024-02-13T18:56:20.389Z,5.80
2024-02-13T18:59:28.139Z,5.84
2024-02-13T19:02:30.903Z,5.81
2024-02-13T19:05:33.841Z,5.75
2024-02-13T19:08:36.928Z,5.81
2024-02-13T19:11:41.192Z,5.73
2024-02-13T19:14:44.960Z,5.70
2024-02-13T19:17:48.214Z,5.62
2024-02-13T19:20:55.610Z,5.61
2024-02-13T19:23:58.606Z,5.57
2024-02-13T19:27:01.334Z,5.62
2024-02-13T19:30:04.577Z,5.70
2024-02-13T19:33:08.310Z,5.65
2024-02-13T19:36:11.072Z,5.70
2024-02-13T19:39:14.446Z,5.61
2024-02-13T19:42:17.304Z,5.63
2024-02-13T19:45:20.222Z,5.61
2024-02-13T19:48:23.009Z,5.58
2024-02-13T19:51:25.809Z,5.52
2024-02-13T19:54:28.611Z,5.61
2024-02-13T19:57:31.732Z,5.58
2024-02-13T20:00:34.725Z,5.62
2024-02-13T20:03:38.747Z,5.47
2024-02-13T20:06:41.574Z,5.43
2024-02-13T20:09:45.293Z,5.46
2024-02-13T20:12:49.146Z,5.43
2024-02-13T20:15:51.944Z,5.44
2024-02-13T20:18:59.369Z,5.41
2024-02-13T20:22:02.675Z,5.43
2024-02-13T20:25:05.467Z,5.40
2024-02-13T20:28:10.858Z,5.44
2024-02-13T20:31:13.717Z,5.45
2024-02-13T20:34:16.758Z,5.44
2024-02-13T20:37:21.497Z,5.47
2024-02-13T20:40:26.241Z,5.44
2024-02-13T20:43:29.128Z,5.42
2024-02-13T20:46:35.214Z,5.37
2024-02-13T20:49:38.194Z,5.23
2024-02-13T20:52:41.375Z,5.17
2024-02-13T20:55:45.369Z,5.15
2024-02-13T20:58:49.132Z,5.05
2024-02-13T21:01:52.772Z,4.86
2024-02-13T21:04:56.101Z,4.83
2024-02-13T21:07:59.233Z,4.81
2024-02-13T21:11:02.195Z,4.94
2024-02-13T21:14:05.540Z,4.99
2024-02-13T21:17:09.595Z,5.04
2024-02-13T21:20:15.421Z,5.15
2024-02-13T21:23:36.938Z,5.08
2024-02-13T21:26:40.709Z,5.06
2024-02-13T21:29:45.939Z,5.04
2024-02-13T21:32:49.060Z,5.04
2024-02-13T21:35:52.193Z,5.12
2024-02-13T21:38:55.119Z,5.09
2024-02-13T21:41:58.028Z,5.11
2024-02-13T21:45:02.515Z,5.16
2024-02-13T21:48:07.285Z,5.10
2024-02-13T21:51:10.323Z,5.25
2024-02-13T21:54:13.072Z,5.20
2024-02-13T21:57:15.935Z,5.16
2024-02-13T22:00:19.109Z,5.10
2024-02-13T22:03:21.929Z,5.06
2024-02-13T22:06:26.840Z,5.03
2024-02-13T22:09:29.721Z,5.14
2024-02-13T22:12:32.692Z,5.01
2024-02-13T22:15:35.462Z,5.05
2024-02-13T22:18:38.428Z,5.01
2024-02-13T22:21:41.460Z,4.97
2024-02-13T22:24:44.710Z,4.94
2024-02-13T22:27:47.509Z,4.88
2024-02-13T22:30:50.223Z,4.82
2024-02-13T22:33:53.173Z,4.84
2024-02-13T22:36:56.226Z,4.78
2024-02-13T22:39:59.981Z,4.63
2024-02-13T22:43:04.861Z,4.64
2024-02-13T22:46:07.630Z,4.64
2024-02-13T22:49:10.426Z,4.62
2024-02-13T22:52:13.200Z,4.55
2024-02-13T22:55:16.350Z,4.56
2024-02-13T22:58:19.083Z,4.58
2024-02-13T23:01:21.953Z,4.44
2024-02-13T23:04:24.655Z,4.42
2024-02-13T23:07:27.697Z,4.37
2024-02-13T23:10:32.377Z,4.29
2024-02-13T23:13:42.814Z,4.16
2024-02-13T23:16:48.745Z,4.21
2024-02-13T23:19:53.636Z,4.24
2024-02-13T23:22:57.083Z,4.28
2024-02-13T23:25:59.833Z,4.29
2024-02-13T23:29:02.683Z,4.29
2024-02-13T23:32:05.783Z,4.20
2024-02-13T23:35:08.828Z,4.29
2024-02-13T23:38:12.123Z,4.13
2024-02-13T23:41:15.305Z,4.04
2024-02-13T23:44:18.228Z,3.95
2024-02-13T23:47:21.769Z,3.92
2024-02-13T23:50:24.665Z,3.81
2024-02-13T23:53:27.384Z,3.66
2024-02-13T23:56:30.532Z,3.74
2024-02-13T23:59:34.359Z,3.59
